PWSweather.com
Personal Weather Stations
Station Observations
SEANO
CarmignanoIT

CarmignanoIT

Lat: 43.829667, Lon: 11.02622

Elevation: 142

Station Type: Davis Vantage Pro2

http://www.meteoseano.it

Latest ConditionsUpdated 9:00:01 PM GMT+01:01 Friday, Feb 15, 2019
Currently Today's Max Today's Min Today's Average
Temperature 54.1°F12.3°C 67.8°F19.9°C 31.7°F-0.2°C 47.0°F8.3°C
Dew Point 32.6°F0.3°C 43.3°F6.3°C 29.1°F-1.6°C 34.5°F1.4°C
Winds 4.6 mph ENE7.4 kmh ENE 9.2 mph -14.8 kmh - - 1.1 mph 1.8 kmh
Wind Gusts 10.4 mph16.7 kmh 12.7 mph20.4 kmh - -
Humidity 44% 92% 30% 67%
Pressure 30.41 in1029.8 mb 30.48 in1032.2 mb 30.34 in1027.4 mb -
Hour Temp Dew Point Humidity Winds Wind Gusts Pressure Precip Precip Rate Daily Precip Total
09:00 PM 54.1°F12.3°C 32.6°F0.3°C 44% 4.6 mph ENE7.4 kmh ENE 10.4 mph16.7 kmh 30.41 in1029.8 mb - 0.00 in0.0 mm 0.00 in0.0 mm
08:55 PM 54.1°F12.3°C 32.6°F0.3°C 44% 5.8 mph ENE9.3 kmh ENE 9.2 mph14.8 kmh 30.41 in1029.8 mb - 0.00 in0.0 mm 0.00 in0.0 mm
08:50 PM 54.4°F12.4°C 32.9°F0.5°C 44% 5.8 mph E9.3 kmh E 8.1 mph13.0 kmh 30.41 in1029.8 mb - 0.00 in0.0 mm 0.00 in0.0 mm
08:45 PM 54.5°F12.5°C 32.4°F0.2°C 43% 5.8 mph E9.3 kmh E 9.2 mph14.8 kmh 30.41 in1029.8 mb - 0.00 in0.0 mm 0.00 in0.0 mm
08:40 PM 54.4°F12.4°C 32.9°F0.5°C 44% 6.9 mph E11.1 kmh E 9.2 mph14.8 kmh 30.41 in1029.8 mb - 0.00 in0.0 mm 0.00 in0.0 mm
08:35 PM 54.2°F12.3°C 32.7°F0.4°C 44% 6.9 mph E11.1 kmh E 9.2 mph14.8 kmh 30.41 in1029.8 mb - 0.00 in0.0 mm 0.00 in0.0 mm
08:30 PM 54.0°F12.2°C 33.2°F0.7°C 45% 4.6 mph ENE7.4 kmh ENE 9.2 mph14.8 kmh 30.41 in1029.8 mb - 0.00 in0.0 mm 0.00 in0.0 mm
08:25 PM 54.1°F12.3°C 33.2°F0.7°C 45% 4.6 mph E7.4 kmh E 9.2 mph14.8 kmh 30.41 in1029.8 mb - 0.00 in0.0 mm 0.00 in0.0 mm
08:20 PM 54.2°F12.3°C 33.3°F0.7°C 45% 5.8 mph E9.3 kmh E 9.2 mph14.8 kmh 30.41 in1029.8 mb - 0.00 in0.0 mm 0.00 in0.0 mm
08:15 PM 54.4°F12.4°C 33.4°F0.8°C 45% 4.6 mph E7.4 kmh E 8.1 mph13.0 kmh 30.41 in1029.8 mb - 0.00 in0.0 mm 0.00 in0.0 mm
08:10 PM 54.5°F12.5°C 33.6°F0.9°C 45% 4.6 mph ENE7.4 kmh ENE 8.1 mph13.0 kmh 30.41 in1029.8 mb - 0.00 in0.0 mm 0.00 in0.0 mm
08:00 PM 54.7°F12.6°C 33.8°F1.0°C 45% 6.9 mph E11.1 kmh E 10.4 mph16.7 kmh 30.40 in1029.5 mb - 0.00 in0.0 mm 0.00 in0.0 mm
07:55 PM 54.7°F12.6°C 33.8°F1.0°C 45% 5.8 mph E9.3 kmh E 9.2 mph14.8 kmh 30.40 in1029.5 mb - 0.00 in0.0 mm 0.00 in0.0 mm
07:50 PM 54.8°F12.7°C 33.8°F1.0°C 45% 4.6 mph E7.4 kmh E 10.4 mph16.7 kmh 30.40 in1029.5 mb - 0.00 in0.0 mm 0.00 in0.0 mm
07:45 PM 54.9°F12.7°C 33.9°F1.1°C 45% 3.5 mph ENE5.6 kmh ENE 8.1 mph13.0 kmh 30.40 in1029.5 mb - 0.00 in0.0 mm 0.00 in0.0 mm
07:40 PM 55.1°F12.8°C 34.1°F1.2°C 45% 3.5 mph ENE5.6 kmh ENE 8.1 mph13.0 kmh 30.39 in1029.1 mb - 0.00 in0.0 mm 0.00 in0.0 mm
07:35 PM 55.4°F13.0°C 33.8°F1.0°C 44% 3.5 mph E5.6 kmh E 4.6 mph7.4 kmh 30.39 in1029.1 mb - 0.00 in0.0 mm 0.00 in0.0 mm
07:30 PM 55.5°F13.1°C 33.9°F1.1°C 44% 4.6 mph E7.4 kmh E 8.1 mph13.0 kmh 30.39 in1029.1 mb - 0.00 in0.0 mm 0.00 in0.0 mm
07:25 PM 55.7°F13.2°C 34.1°F1.2°C 44% 3.5 mph ENE5.6 kmh ENE 4.6 mph7.4 kmh 30.39 in1029.1 mb - 0.00 in0.0 mm 0.00 in0.0 mm
07:20 PM 56.0°F13.3°C 33.8°F1.0°C 43% 3.5 mph ENE5.6 kmh ENE 6.9 mph11.1 kmh 30.39 in1029.1 mb - 0.00 in0.0 mm 0.00 in0.0 mm
07:15 PM 56.3°F13.5°C 33.5°F0.8°C 42% 2.3 mph ENE3.7 kmh ENE 4.6 mph7.4 kmh 30.39 in1029.1 mb - 0.00 in0.0 mm 0.00 in0.0 mm
07:10 PM 56.5°F13.6°C 33.7°F0.9°C 42% 2.3 mph ENE3.7 kmh ENE 3.5 mph5.6 kmh 30.39 in1029.1 mb - 0.00 in0.0 mm 0.00 in0.0 mm
07:00 PM 57.0°F13.9°C 33.5°F0.8°C 41% 3.5 mph NE5.6 kmh NE 4.6 mph7.4 kmh 30.39 in1029.1 mb - 0.00 in0.0 mm 0.00 in0.0 mm
06:55 PM 57.2°F14.0°C 33.7°F0.9°C 41% 3.5 mph NE5.6 kmh NE 3.5 mph5.6 kmh 30.39 in1029.1 mb - 0.00 in0.0 mm 0.00 in0.0 mm
06:50 PM 57.4°F14.1°C 33.3°F0.7°C 40% 3.5 mph ENE5.6 kmh ENE 4.6 mph7.4 kmh 30.39 in1029.1 mb - 0.00 in0.0 mm 0.00 in0.0 mm
06:45 PM 57.6°F14.2°C 33.4°F0.8°C 40% 4.6 mph ENE7.4 kmh ENE 6.9 mph11.1 kmh 30.39 in1029.1 mb - 0.00 in0.0 mm 0.00 in0.0 mm
06:40 PM 57.9°F14.4°C 33.7°F0.9°C 40% 4.6 mph ENE7.4 kmh ENE 5.8 mph9.3 kmh 30.39 in1029.1 mb - 0.00 in0.0 mm 0.00 in0.0 mm
06:35 PM 58.1°F14.5°C 33.2°F0.7°C 39% 5.8 mph ENE9.3 kmh ENE 5.8 mph9.3 kmh 30.39 in1029.1 mb - 0.00 in0.0 mm 0.00 in0.0 mm
06:30 PM 58.3°F14.6°C 32.8°F0.4°C 38% 4.6 mph ENE7.4 kmh ENE 8.1 mph13.0 kmh 30.39 in1029.1 mb - 0.00 in0.0 mm 0.00 in0.0 mm
06:25 PM 58.4°F14.7°C 32.9°F0.5°C 38% 4.6 mph ENE7.4 kmh ENE 5.8 mph9.3 kmh 30.39 in1029.1 mb - 0.00 in0.0 mm 0.00 in0.0 mm
06:20 PM 58.4°F14.7°C 32.9°F0.5°C 38% 3.5 mph ENE5.6 kmh ENE 4.6 mph7.4 kmh 30.39 in1029.1 mb - 0.00 in0.0 mm 0.00 in0.0 mm
06:15 PM 58.6°F14.8°C 32.4°F0.2°C 37% 4.6 mph E7.4 kmh E 6.9 mph11.1 kmh 30.39 in1029.1 mb - 0.00 in0.0 mm 0.00 in0.0 mm
06:10 PM 59.0°F15.0°C 32.8°F0.4°C 37% 3.5 mph ENE5.6 kmh ENE 4.6 mph7.4 kmh 30.39 in1029.1 mb - 0.00 in0.0 mm 0.00 in0.0 mm
06:00 PM 59.9°F15.5°C 32.2°F0.1°C 35% 3.5 mph E5.6 kmh E 4.6 mph7.4 kmh 30.38 in1028.8 mb - 0.00 in0.0 mm 0.00 in0.0 mm
05:55 PM 60.3°F15.7°C 32.5°F0.3°C 35% 2.3 mph E3.7 kmh E 3.5 mph5.6 kmh 30.38 in1028.8 mb - 0.00 in0.0 mm 0.00 in0.0 mm
05:50 PM 60.7°F15.9°C 32.2°F0.1°C 34% 2.3 mph E3.7 kmh E 3.5 mph5.6 kmh 30.38 in1028.8 mb - 0.00 in0.0 mm 0.00 in0.0 mm
05:45 PM 61.2°F16.2°C 32.6°F0.3°C 34% 2.3 mph E3.7 kmh E 3.5 mph5.6 kmh 30.38 in1028.8 mb - 0.00 in0.0 mm 0.00 in0.0 mm
05:40 PM 61.8°F16.6°C 32.4°F0.2°C 33% 1.2 mph ENE1.9 kmh ENE 3.5 mph5.6 kmh 30.38 in1028.8 mb - 0.00 in0.0 mm 0.00 in0.0 mm
05:35 PM 62.4°F16.9°C 32.2°F0.1°C 32% 2.3 mph ENE3.7 kmh ENE 3.5 mph5.6 kmh 30.38 in1028.8 mb - 0.00 in0.0 mm 0.00 in0.0 mm
05:30 PM 63.0°F17.2°C 31.8°F-0.1°C 31% 3.5 mph NE5.6 kmh NE 3.5 mph5.6 kmh 30.38 in1028.8 mb - 0.00 in0.0 mm 0.00 in0.0 mm
05:25 PM 63.3°F17.4°C 32.2°F0.1°C 31% 3.5 mph NE5.6 kmh NE 3.5 mph5.6 kmh 30.37 in1028.4 mb - 0.00 in0.0 mm 0.00 in0.0 mm
05:20 PM 63.8°F17.7°C 31.7°F-0.2°C 30% 4.6 mph NE7.4 kmh NE 5.8 mph9.3 kmh 30.37 in1028.4 mb - 0.00 in0.0 mm 0.00 in0.0 mm
05:15 PM 64.2°F17.9°C 32.1°F0.1°C 30% 4.6 mph NE7.4 kmh NE 6.9 mph11.1 kmh 30.37 in1028.4 mb - 0.00 in0.0 mm 0.00 in0.0 mm
05:10 PM 64.7°F18.2°C 32.5°F0.3°C 30% 4.6 mph NE7.4 kmh NE 11.5 mph18.5 kmh 30.37 in1028.4 mb - 0.00 in0.0 mm 0.00 in0.0 mm
05:00 PM 65.2°F18.4°C 33.0°F0.6°C 30% 6.9 mph NE11.1 kmh NE 10.4 mph16.7 kmh 30.36 in1028.1 mb - 0.00 in0.0 mm 0.00 in0.0 mm
04:55 PM 65.4°F18.6°C 33.2°F0.7°C 30% 9.2 mph NE14.8 kmh NE 12.7 mph20.4 kmh 30.36 in1028.1 mb - 0.00 in0.0 mm 0.00 in0.0 mm
04:50 PM 65.7°F18.7°C 33.4°F0.8°C 30% 6.9 mph NE11.1 kmh NE 11.5 mph18.5 kmh 30.36 in1028.1 mb - 0.00 in0.0 mm 0.00 in0.0 mm
04:45 PM 66.1°F18.9°C 33.7°F0.9°C 30% 5.8 mph ENE9.3 kmh ENE 8.1 mph13.0 kmh 30.36 in1028.1 mb - 0.00 in0.0 mm 0.00 in0.0 mm
04:40 PM 66.4°F19.1°C 34.8°F1.6°C 31% 5.8 mph NE9.3 kmh NE 10.4 mph16.7 kmh 30.36 in1028.1 mb - 0.00 in0.0 mm 0.00 in0.0 mm
04:35 PM 66.6°F19.2°C 35.0°F1.7°C 31% 6.9 mph NE11.1 kmh NE 11.5 mph18.5 kmh 30.35 in1027.8 mb - 0.00 in0.0 mm 0.00 in0.0 mm
04:30 PM 66.7°F19.3°C 35.9°F2.2°C 32% 5.8 mph NE9.3 kmh NE 9.2 mph14.8 kmh 30.35 in1027.8 mb - 0.00 in0.0 mm 0.00 in0.0 mm
04:25 PM 66.8°F19.3°C 35.2°F1.8°C 31% 6.9 mph NE11.1 kmh NE 9.2 mph14.8 kmh 30.35 in1027.8 mb - 0.00 in0.0 mm 0.00 in0.0 mm
04:20 PM 66.9°F19.4°C 36.1°F2.3°C 32% 4.6 mph NE7.4 kmh NE 9.2 mph14.8 kmh 30.35 in1027.8 mb - 0.00 in0.0 mm 0.00 in0.0 mm
04:15 PM 67.1°F19.5°C 35.5°F1.9°C 31% 6.9 mph NNE11.1 kmh NNE 10.4 mph16.7 kmh 30.35 in1027.8 mb - 0.00 in0.0 mm 0.00 in0.0 mm
04:10 PM 67.5°F19.7°C 35.8°F2.1°C 31% 2.3 mph NE3.7 kmh NE 4.6 mph7.4 kmh 30.35 in1027.8 mb - 0.00 in0.0 mm 0.00 in0.0 mm
04:00 PM 67.8°F19.9°C 36.8°F2.7°C 32% Calm Calm 1.2 mph1.9 kmh 30.35 in1027.8 mb - 0.00 in0.0 mm 0.00 in0.0 mm
03:55 PM 67.8°F19.9°C 36.8°F2.7°C 32% Calm Calm 1.2 mph1.9 kmh 30.35 in1027.8 mb - 0.00 in0.0 mm 0.00 in0.0 mm
03:50 PM 67.6°F19.8°C 36.7°F2.6°C 32% Calm Calm -- 30.35 in1027.8 mb - 0.00 in0.0 mm 0.00 in0.0 mm
03:45 PM 67.8°F19.9°C 36.8°F2.7°C 32% Calm Calm 1.2 mph1.9 kmh 30.35 in1027.8 mb - 0.00 in0.0 mm 0.00 in0.0 mm
03:40 PM 67.8°F19.9°C 38.4°F3.6°C 34% Calm Calm 2.3 mph3.7 kmh 30.34 in1027.4 mb - 0.00 in0.0 mm 0.00 in0.0 mm
03:35 PM 67.7°F19.8°C 38.3°F3.5°C 34% 1.2 mph N1.9 kmh N 2.3 mph3.7 kmh 30.34 in1027.4 mb - 0.00 in0.0 mm 0.00 in0.0 mm
03:30 PM 67.5°F19.7°C 38.1°F3.4°C 34% Calm Calm -- 30.35 in1027.8 mb - 0.00 in0.0 mm 0.00 in0.0 mm
03:25 PM 67.4°F19.7°C 38.8°F3.8°C 35% Calm Calm -- 30.35 in1027.8 mb - 0.00 in0.0 mm 0.00 in0.0 mm
03:20 PM 67.2°F19.6°C 39.3°F4.1°C 36% Calm Calm -- 30.35 in1027.8 mb - 0.00 in0.0 mm 0.00 in0.0 mm
03:15 PM 67.0°F19.4°C 39.1°F3.9°C 36% Calm Calm -- 30.35 in1027.8 mb - 0.00 in0.0 mm 0.00 in0.0 mm
03:10 PM 67.0°F19.4°C 40.5°F4.7°C 38% Calm Calm -- 30.35 in1027.8 mb - 0.00 in0.0 mm 0.00 in0.0 mm
03:00 PM 66.8°F19.3°C 40.4°F4.7°C 38% Calm Calm -- 30.35 in1027.8 mb - 0.00 in0.0 mm 0.00 in0.0 mm
02:55 PM 66.5°F19.2°C 42.1°F5.6°C 41% Calm Calm -- 30.35 in1027.8 mb - 0.00 in0.0 mm 0.00 in0.0 mm
02:50 PM 66.1°F18.9°C 41.7°F5.4°C 41% Calm Calm -- 30.35 in1027.8 mb - 0.00 in0.0 mm 0.00 in0.0 mm
02:45 PM 65.5°F18.6°C 43.0°F6.1°C 44% Calm Calm -- 30.35 in1027.8 mb - 0.00 in0.0 mm 0.00 in0.0 mm
02:40 PM 64.9°F18.3°C 43.0°F6.1°C 45% Calm Calm -- 30.36 in1028.1 mb - 0.00 in0.0 mm 0.00 in0.0 mm
02:35 PM 64.4°F18.0°C 43.2°F6.2°C 46% Calm Calm 1.2 mph1.9 kmh 30.36 in1028.1 mb - 0.00 in0.0 mm 0.00 in0.0 mm
02:30 PM 64.0°F17.8°C 42.8°F6.0°C 46% Calm Calm -- 30.36 in1028.1 mb - 0.00 in0.0 mm 0.00 in0.0 mm
02:25 PM 63.5°F17.5°C 42.4°F5.8°C 46% Calm Calm -- 30.36 in1028.1 mb - 0.00 in0.0 mm 0.00 in0.0 mm
02:20 PM 63.3°F17.4°C 42.7°F5.9°C 47% Calm Calm 3.5 mph5.6 kmh 30.36 in1028.1 mb - 0.00 in0.0 mm 0.00 in0.0 mm
02:15 PM 63.0°F17.2°C 42.5°F5.8°C 47% Calm Calm -- 30.36 in1028.1 mb - 0.00 in0.0 mm 0.00 in0.0 mm
02:10 PM 62.9°F17.2°C 42.9°F6.1°C 48% Calm Calm -- 30.37 in1028.4 mb - 0.00 in0.0 mm 0.00 in0.0 mm
02:00 PM 61.9°F16.6°C 43.0°F6.1°C 50% Calm Calm -- 30.37 in1028.4 mb - 0.00 in0.0 mm 0.00 in0.0 mm
01:55 PM 61.6°F16.4°C 43.3°F6.3°C 51% Calm Calm -- 30.38 in1028.8 mb - 0.00 in0.0 mm 0.00 in0.0 mm
01:50 PM 61.0°F16.1°C 43.3°F6.3°C 52% Calm Calm -- 30.38 in1028.8 mb - 0.00 in0.0 mm 0.00 in0.0 mm
01:45 PM 60.6°F15.9°C 43.3°F6.3°C 53% Calm Calm -- 30.38 in1028.8 mb - 0.00 in0.0 mm 0.00 in0.0 mm
01:40 PM 60.1°F15.6°C 42.9°F6.1°C 53% 1.2 mph N1.9 kmh N 3.5 mph5.6 kmh 30.38 in1028.8 mb - 0.00 in0.0 mm 0.00 in0.0 mm
01:35 PM 60.0°F15.6°C 42.8°F6.0°C 53% 2.3 mph N3.7 kmh N 3.5 mph5.6 kmh 30.38 in1028.8 mb - 0.00 in0.0 mm 0.00 in0.0 mm
01:30 PM 59.9°F15.5°C 42.7°F5.9°C 53% Calm Calm 2.3 mph3.7 kmh 30.39 in1029.1 mb - 0.00 in0.0 mm 0.00 in0.0 mm
01:25 PM 59.6°F15.3°C 42.9°F6.1°C 54% 1.2 mph N1.9 kmh N 2.3 mph3.7 kmh 30.39 in1029.1 mb - 0.00 in0.0 mm 0.00 in0.0 mm
01:20 PM 59.2°F15.1°C 42.6°F5.9°C 54% 1.2 mph N1.9 kmh N 2.3 mph3.7 kmh 30.39 in1029.1 mb - 0.00 in0.0 mm 0.00 in0.0 mm
01:15 PM 59.1°F15.1°C 42.9°F6.1°C 55% 1.2 mph N1.9 kmh N 2.3 mph3.7 kmh 30.39 in1029.1 mb - 0.00 in0.0 mm 0.00 in0.0 mm
01:10 PM 58.3°F14.6°C 42.2°F5.7°C 55% Calm Calm -- 30.39 in1029.1 mb - 0.00 in0.0 mm 0.00 in0.0 mm
01:00 PM 57.8°F14.3°C 42.2°F5.7°C 56% 1.2 mph N1.9 kmh N 2.3 mph3.7 kmh 30.40 in1029.5 mb - 0.00 in0.0 mm 0.00 in0.0 mm
12:55 PM 57.7°F14.3°C 42.1°F5.6°C 56% 1.2 mph N1.9 kmh N 2.3 mph3.7 kmh 30.40 in1029.5 mb - 0.00 in0.0 mm 0.00 in0.0 mm
12:50 PM 57.4°F14.1°C 41.8°F5.4°C 56% Calm Calm 3.5 mph5.6 kmh 30.41 in1029.8 mb - 0.00 in0.0 mm 0.00 in0.0 mm
12:45 PM 56.8°F13.8°C 42.2°F5.7°C 58% Calm Calm -- 30.41 in1029.8 mb - 0.00 in0.0 mm 0.00 in0.0 mm
12:40 PM 56.0°F13.3°C 41.9°F5.5°C 59% Calm Calm -- 30.41 in1029.8 mb - 0.00 in0.0 mm 0.00 in0.0 mm
12:35 PM 55.7°F13.2°C 41.6°F5.3°C 59% Calm Calm -- 30.41 in1029.8 mb - 0.00 in0.0 mm 0.00 in0.0 mm
12:30 PM 55.3°F12.9°C 41.2°F5.1°C 59% Calm Calm -- 30.42 in1030.1 mb - 0.00 in0.0 mm 0.00 in0.0 mm
12:25 PM 54.8°F12.7°C 41.2°F5.1°C 60% Calm Calm -- 30.42 in1030.1 mb - 0.00 in0.0 mm 0.00 in0.0 mm
12:20 PM 54.3°F12.4°C 41.6°F5.3°C 62% Calm Calm -- 30.42 in1030.1 mb - 0.00 in0.0 mm 0.00 in0.0 mm
12:15 PM 53.8°F12.1°C 40.7°F4.8°C 61% Calm Calm -- 30.42 in1030.1 mb - 0.00 in0.0 mm 0.00 in0.0 mm
12:10 PM 53.5°F11.9°C 40.8°F4.9°C 62% Calm Calm -- 30.42 in1030.1 mb - 0.00 in0.0 mm 0.00 in0.0 mm
12:00 PM 53.1°F11.7°C 40.4°F4.7°C 62% Calm Calm -- 30.43 in1030.5 mb - 0.00 in0.0 mm 0.00 in0.0 mm
11:55 AM 52.5°F11.4°C 40.7°F4.8°C 64% Calm Calm -- 30.43 in1030.5 mb - 0.00 in0.0 mm 0.00 in0.0 mm
11:50 AM 51.8°F11.0°C 40.4°F4.7°C 65% Calm Calm -- 30.43 in1030.5 mb - 0.00 in0.0 mm 0.00 in0.0 mm
11:45 AM 51.3°F10.7°C 40.3°F4.6°C 66% Calm Calm -- 30.44 in1030.8 mb - 0.00 in0.0 mm 0.00 in0.0 mm
11:40 AM 50.6°F10.3°C 40.4°F4.7°C 68% Calm Calm -- 30.44 in1030.8 mb - 0.00 in0.0 mm 0.00 in0.0 mm
11:35 AM 49.7°F9.8°C 40.3°F4.6°C 70% Calm Calm -- 30.44 in1030.8 mb - 0.00 in0.0 mm 0.00 in0.0 mm
11:30 AM 48.5°F9.2°C 39.1°F3.9°C 70% Calm Calm -- 30.45 in1031.2 mb - 0.00 in0.0 mm 0.00 in0.0 mm
11:25 AM 48.2°F9.0°C 38.5°F3.6°C 69% Calm Calm -- 30.45 in1031.2 mb - 0.00 in0.0 mm 0.00 in0.0 mm
11:20 AM 48.1°F8.9°C 38.7°F3.7°C 70% Calm Calm -- 30.44 in1030.8 mb - 0.00 in0.0 mm 0.00 in0.0 mm
11:15 AM 47.6°F8.7°C 38.7°F3.7°C 71% Calm Calm -- 30.45 in1031.2 mb - 0.00 in0.0 mm 0.00 in0.0 mm
11:10 AM 47.2°F8.4°C 38.6°F3.7°C 72% Calm Calm -- 30.44 in1030.8 mb - 0.00 in0.0 mm 0.00 in0.0 mm
11:00 AM 46.8°F8.2°C 38.2°F3.4°C 72% Calm Calm -- 30.45 in1031.2 mb - 0.00 in0.0 mm 0.00 in0.0 mm
10:55 AM 46.7°F8.2°C 38.1°F3.4°C 72% Calm Calm -- 30.45 in1031.2 mb - 0.00 in0.0 mm 0.00 in0.0 mm
10:50 AM 46.7°F8.2°C 38.1°F3.4°C 72% Calm Calm -- 30.45 in1031.2 mb - 0.00 in0.0 mm 0.00 in0.0 mm
10:45 AM 46.5°F8.1°C 38.3°F3.5°C 73% Calm Calm -- 30.45 in1031.2 mb - 0.00 in0.0 mm 0.00 in0.0 mm
10:40 AM 46.2°F7.9°C 38.7°F3.7°C 75% Calm Calm -- 30.45 in1031.2 mb - 0.00 in0.0 mm 0.00 in0.0 mm
10:35 AM 45.1°F7.3°C 38.0°F3.3°C 76% Calm Calm -- 30.45 in1031.2 mb - 0.00 in0.0 mm 0.00 in0.0 mm
10:30 AM 44.8°F7.1°C 37.7°F3.2°C 76% Calm Calm -- 30.45 in1031.2 mb - 0.00 in0.0 mm 0.00 in0.0 mm
10:25 AM 44.5°F6.9°C 37.7°F3.2°C 77% Calm Calm -- 30.45 in1031.2 mb - 0.00 in0.0 mm 0.00 in0.0 mm
10:20 AM 44.1°F6.7°C 37.7°F3.2°C 78% Calm Calm -- 30.45 in1031.2 mb - 0.00 in0.0 mm 0.00 in0.0 mm
10:15 AM 43.8°F6.6°C 37.4°F3.0°C 78% Calm Calm -- 30.45 in1031.2 mb - 0.00 in0.0 mm 0.00 in0.0 mm
10:10 AM 43.5°F6.4°C 37.5°F3.1°C 79% Calm Calm -- 30.45 in1031.2 mb - 0.00 in0.0 mm 0.00 in0.0 mm
10:00 AM 42.1°F5.6°C 37.0°F2.8°C 82% Calm Calm -- 30.45 in1031.2 mb - 0.00 in0.0 mm 0.00 in0.0 mm
09:55 AM 41.6°F5.3°C 36.8°F2.7°C 83% Calm Calm -- 30.45 in1031.2 mb - 0.00 in0.0 mm 0.00 in0.0 mm
09:50 AM 41.2°F5.1°C 36.7°F2.6°C 84% Calm Calm -- 30.45 in1031.2 mb - 0.00 in0.0 mm 0.00 in0.0 mm
09:45 AM 40.9°F4.9°C 36.8°F2.7°C 85% Calm Calm -- 30.45 in1031.2 mb - 0.00 in0.0 mm 0.00 in0.0 mm
09:40 AM 40.6°F4.8°C 37.1°F2.8°C 87% Calm Calm -- 30.46 in1031.5 mb - 0.00 in0.0 mm 0.00 in0.0 mm
09:35 AM 40.2°F4.6°C 37.0°F2.8°C 88% Calm Calm -- 30.45 in1031.2 mb - 0.00 in0.0 mm 0.00 in0.0 mm
09:30 AM 39.5°F4.2°C 36.8°F2.7°C 90% Calm Calm -- 30.45 in1031.2 mb - 0.00 in0.0 mm 0.00 in0.0 mm
09:25 AM 38.7°F3.7°C 36.0°F2.2°C 90% Calm Calm -- 30.45 in1031.2 mb - 0.00 in0.0 mm 0.00 in0.0 mm
09:20 AM 38.1°F3.4°C 35.4°F1.9°C 90% Calm Calm -- 30.45 in1031.2 mb - 0.00 in0.0 mm 0.00 in0.0 mm
09:15 AM 37.6°F3.1°C 35.0°F1.7°C 90% Calm Calm -- 30.45 in1031.2 mb - 0.00 in0.0 mm 0.00 in0.0 mm
09:10 AM 37.2°F2.9°C 34.8°F1.6°C 91% Calm Calm -- 30.46 in1031.5 mb - 0.00 in0.0 mm 0.00 in0.0 mm
09:00 AM 36.3°F2.4°C 34.0°F1.1°C 91% Calm Calm -- 30.46 in1031.5 mb - 0.00 in0.0 mm 0.00 in0.0 mm
08:55 AM 36.1°F2.3°C 33.7°F0.9°C 91% Calm Calm -- 30.46 in1031.5 mb - 0.00 in0.0 mm 0.00 in0.0 mm
08:50 AM 35.8°F2.1°C 33.4°F0.8°C 91% Calm Calm -- 30.46 in1031.5 mb - 0.00 in0.0 mm 0.00 in0.0 mm
08:45 AM 35.5°F1.9°C 33.1°F0.6°C 91% Calm Calm -- 30.46 in1031.5 mb - 0.00 in0.0 mm 0.00 in0.0 mm
08:40 AM 35.3°F1.8°C 32.9°F0.5°C 91% Calm Calm -- 30.46 in1031.5 mb - 0.00 in0.0 mm 0.00 in0.0 mm
08:35 AM 35.1°F1.7°C 33.0°F0.6°C 92% Calm Calm -- 30.46 in1031.5 mb - 0.00 in0.0 mm 0.00 in0.0 mm
08:30 AM 34.6°F1.4°C 32.5°F0.3°C 92% Calm Calm -- 30.46 in1031.5 mb - 0.00 in0.0 mm 0.00 in0.0 mm
08:25 AM 34.0°F1.1°C 32.0°F0.0°C 92% Calm Calm -- 30.46 in1031.5 mb - 0.00 in0.0 mm 0.00 in0.0 mm
08:20 AM 33.5°F0.8°C 31.5°F-0.3°C 92% Calm Calm -- 30.46 in1031.5 mb - 0.00 in0.0 mm 0.00 in0.0 mm
08:15 AM 33.2°F0.7°C 30.9°F-0.6°C 91% Calm Calm -- 30.46 in1031.5 mb - 0.00 in0.0 mm 0.00 in0.0 mm
08:10 AM 33.1°F0.6°C 30.8°F-0.7°C 91% Calm Calm -- 30.46 in1031.5 mb - 0.00 in0.0 mm 0.00 in0.0 mm
08:00 AM 32.7°F0.4°C 30.4°F-0.9°C 91% Calm Calm -- 30.47 in1031.8 mb - 0.00 in0.0 mm 0.00 in0.0 mm
07:55 AM 32.5°F0.3°C 30.2°F-1.0°C 91% Calm Calm -- 30.47 in1031.8 mb - 0.00 in0.0 mm 0.00 in0.0 mm
07:50 AM 32.4°F0.2°C 30.0°F-1.1°C 91% Calm Calm -- 30.47 in1031.8 mb - 0.00 in0.0 mm 0.00 in0.0 mm
07:45 AM 32.2°F0.1°C 29.9°F-1.2°C 91% Calm Calm -- 30.47 in1031.8 mb - 0.00 in0.0 mm 0.00 in0.0 mm
07:40 AM 32.0°F0.0°C 29.7°F-1.3°C 91% Calm Calm -- 30.46 in1031.5 mb - 0.00 in0.0 mm 0.00 in0.0 mm
07:35 AM 31.8°F-0.1°C 29.5°F-1.4°C 91% Calm Calm -- 30.46 in1031.5 mb - 0.00 in0.0 mm 0.00 in0.0 mm
07:30 AM 31.8°F-0.1°C 29.5°F-1.4°C 91% Calm Calm -- 30.46 in1031.5 mb - 0.00 in0.0 mm 0.00 in0.0 mm
07:25 AM 31.8°F-0.1°C 29.5°F-1.4°C 91% Calm Calm -- 30.46 in1031.5 mb - 0.00 in0.0 mm 0.00 in0.0 mm
07:20 AM 31.8°F-0.1°C 29.2°F-1.6°C 90% Calm Calm -- 30.46 in1031.5 mb - 0.00 in0.0 mm 0.00 in0.0 mm
07:15 AM 31.8°F-0.1°C 29.2°F-1.6°C 90% Calm Calm -- 30.46 in1031.5 mb - 0.00 in0.0 mm 0.00 in0.0 mm
07:10 AM 31.8°F-0.1°C 29.2°F-1.6°C 90% Calm Calm -- 30.46 in1031.5 mb - 0.00 in0.0 mm 0.00 in0.0 mm
07:00 AM 31.7°F-0.2°C 29.1°F-1.6°C 90% Calm Calm -- 30.45 in1031.2 mb - 0.00 in0.0 mm 0.00 in0.0 mm
06:55 AM 31.8°F-0.1°C 29.2°F-1.6°C 90% Calm Calm -- 30.46 in1031.5 mb - 0.00 in0.0 mm 0.00 in0.0 mm
06:50 AM 31.8°F-0.1°C 29.2°F-1.6°C 90% Calm Calm -- 30.46 in1031.5 mb - 0.00 in0.0 mm 0.00 in0.0 mm
06:45 AM 31.8°F-0.1°C 29.2°F-1.6°C 90% Calm Calm -- 30.46 in1031.5 mb - 0.00 in0.0 mm 0.00 in0.0 mm
06:40 AM 31.8°F-0.1°C 29.2°F-1.6°C 90% Calm Calm -- 30.46 in1031.5 mb - 0.00 in0.0 mm 0.00 in0.0 mm
06:35 AM 31.9°F-0.1°C 29.3°F-1.5°C 90% Calm Calm -- 30.46 in1031.5 mb - 0.00 in0.0 mm 0.00 in0.0 mm
06:30 AM 31.9°F-0.1°C 29.3°F-1.5°C 90% Calm Calm -- 30.46 in1031.5 mb - 0.00 in0.0 mm 0.00 in0.0 mm
06:25 AM 32.0°F0.0°C 29.4°F-1.4°C 90% Calm Calm -- 30.46 in1031.5 mb - 0.00 in0.0 mm 0.00 in0.0 mm
06:20 AM 32.0°F0.0°C 29.2°F-1.6°C 89% Calm Calm -- 30.46 in1031.5 mb - 0.00 in0.0 mm 0.00 in0.0 mm
06:15 AM 32.1°F0.1°C 29.2°F-1.6°C 89% Calm Calm -- 30.46 in1031.5 mb - 0.00 in0.0 mm 0.00 in0.0 mm
06:10 AM 32.2°F0.1°C 29.3°F-1.5°C 89% Calm Calm -- 30.46 in1031.5 mb - 0.00 in0.0 mm 0.00 in0.0 mm
06:00 AM 32.5°F0.3°C 29.6°F-1.3°C 89% Calm Calm -- 30.46 in1031.5 mb - 0.00 in0.0 mm 0.00 in0.0 mm
05:55 AM 32.6°F0.3°C 29.7°F-1.3°C 89% Calm Calm -- 30.46 in1031.5 mb - 0.00 in0.0 mm 0.00 in0.0 mm
05:50 AM 32.6°F0.3°C 29.7°F-1.3°C 89% Calm Calm -- 30.46 in1031.5 mb - 0.00 in0.0 mm 0.00 in0.0 mm
05:45 AM 32.7°F0.4°C 29.8°F-1.2°C 89% Calm Calm -- 30.46 in1031.5 mb - 0.00 in0.0 mm 0.00 in0.0 mm
05:40 AM 32.7°F0.4°C 29.8°F-1.2°C 89% Calm Calm -- 30.46 in1031.5 mb - 0.00 in0.0 mm 0.00 in0.0 mm
05:35 AM 32.8°F0.4°C 29.9°F-1.2°C 89% Calm Calm -- 30.46 in1031.5 mb - 0.00 in0.0 mm 0.00 in0.0 mm
05:30 AM 32.8°F0.4°C 29.9°F-1.2°C 89% Calm Calm -- 30.46 in1031.5 mb - 0.00 in0.0 mm 0.00 in0.0 mm
05:25 AM 32.8°F0.4°C 29.9°F-1.2°C 89% Calm Calm -- 30.46 in1031.5 mb - 0.00 in0.0 mm 0.00 in0.0 mm
05:20 AM 32.7°F0.4°C 29.8°F-1.2°C 89% Calm Calm -- 30.46 in1031.5 mb - 0.00 in0.0 mm 0.00 in0.0 mm
05:15 AM 32.7°F0.4°C 29.8°F-1.2°C 89% Calm Calm -- 30.46 in1031.5 mb - 0.00 in0.0 mm 0.00 in0.0 mm
05:10 AM 32.7°F0.4°C 29.8°F-1.2°C 89% Calm Calm -- 30.46 in1031.5 mb - 0.00 in0.0 mm 0.00 in0.0 mm
05:00 AM 32.9°F0.5°C 29.7°F-1.3°C 88% Calm Calm -- 30.46 in1031.5 mb - 0.00 in0.0 mm 0.00 in0.0 mm
04:55 AM 33.0°F0.6°C 29.8°F-1.2°C 88% Calm Calm -- 30.46 in1031.5 mb - 0.00 in0.0 mm 0.00 in0.0 mm
04:50 AM 33.1°F0.6°C 29.9°F-1.2°C 88% Calm Calm -- 30.46 in1031.5 mb - 0.00 in0.0 mm 0.00 in0.0 mm
04:45 AM 33.1°F0.6°C 29.9°F-1.2°C 88% Calm Calm -- 30.46 in1031.5 mb - 0.00 in0.0 mm 0.00 in0.0 mm
04:40 AM 33.2°F0.7°C 30.0°F-1.1°C 88% Calm Calm -- 30.46 in1031.5 mb - 0.00 in0.0 mm 0.00 in0.0 mm
04:35 AM 33.3°F0.7°C 30.1°F-1.1°C 88% Calm Calm -- 30.46 in1031.5 mb - 0.00 in0.0 mm 0.00 in0.0 mm
04:30 AM 33.3°F0.7°C 30.1°F-1.1°C 88% Calm Calm -- 30.46 in1031.5 mb - 0.00 in0.0 mm 0.00 in0.0 mm
04:25 AM 33.4°F0.8°C 30.2°F-1.0°C 88% Calm Calm -- 30.46 in1031.5 mb - 0.00 in0.0 mm 0.00 in0.0 mm
04:20 AM 33.5°F0.8°C 30.3°F-0.9°C 88% Calm Calm -- 30.46 in1031.5 mb - 0.00 in0.0 mm 0.00 in0.0 mm
04:15 AM 33.6°F0.9°C 30.1°F-1.1°C 87% Calm Calm -- 30.46 in1031.5 mb - 0.00 in0.0 mm 0.00 in0.0 mm
04:10 AM 33.7°F0.9°C 30.2°F-1.0°C 87% Calm Calm -- 30.46 in1031.5 mb - 0.00 in0.0 mm 0.00 in0.0 mm
04:00 AM 33.9°F1.1°C 30.4°F-0.9°C 87% Calm Calm -- 30.46 in1031.5 mb - 0.00 in0.0 mm 0.00 in0.0 mm
03:55 AM 34.1°F1.2°C 30.6°F-0.8°C 87% Calm Calm -- 30.46 in1031.5 mb - 0.00 in0.0 mm 0.00 in0.0 mm
03:50 AM 34.2°F1.2°C 30.7°F-0.7°C 87% Calm Calm -- 30.46 in1031.5 mb - 0.00 in0.0 mm 0.00 in0.0 mm
03:45 AM 34.3°F1.3°C 30.8°F-0.7°C 87% Calm Calm -- 30.46 in1031.5 mb - 0.00 in0.0 mm 0.00 in0.0 mm
03:40 AM 34.4°F1.3°C 30.9°F-0.6°C 87% Calm Calm -- 30.46 in1031.5 mb - 0.00 in0.0 mm 0.00 in0.0 mm
03:35 AM 34.6°F1.4°C 31.1°F-0.5°C 87% Calm Calm -- 30.46 in1031.5 mb - 0.00 in0.0 mm 0.00 in0.0 mm
03:30 AM 34.8°F1.6°C 31.3°F-0.4°C 87% Calm Calm -- 30.46 in1031.5 mb - 0.00 in0.0 mm 0.00 in0.0 mm
03:25 AM 34.9°F1.6°C 31.4°F-0.3°C 87% Calm Calm -- 30.46 in1031.5 mb - 0.00 in0.0 mm 0.00 in0.0 mm
03:20 AM 34.9°F1.6°C 31.4°F-0.3°C 87% Calm Calm -- 30.46 in1031.5 mb - 0.00 in0.0 mm 0.00 in0.0 mm
03:15 AM 34.9°F1.6°C 31.1°F-0.5°C 86% Calm Calm -- 30.46 in1031.5 mb - 0.00 in0.0 mm 0.00 in0.0 mm
03:10 AM 34.9°F1.6°C 31.1°F-0.5°C 86% Calm Calm -- 30.47 in1031.8 mb - 0.00 in0.0 mm 0.00 in0.0 mm
03:00 AM 35.0°F1.7°C 31.2°F-0.4°C 86% Calm Calm -- 30.47 in1031.8 mb - 0.00 in0.0 mm 0.00 in0.0 mm
02:55 AM 35.0°F1.7°C 31.2°F-0.4°C 86% Calm Calm -- 30.47 in1031.8 mb - 0.00 in0.0 mm 0.00 in0.0 mm
02:50 AM 35.1°F1.7°C 31.3°F-0.4°C 86% Calm Calm -- 30.47 in1031.8 mb - 0.00 in0.0 mm 0.00 in0.0 mm
02:45 AM 35.1°F1.7°C 31.3°F-0.4°C 86% Calm Calm -- 30.47 in1031.8 mb - 0.00 in0.0 mm 0.00 in0.0 mm
02:40 AM 35.2°F1.8°C 31.1°F-0.5°C 85% Calm Calm -- 30.47 in1031.8 mb - 0.00 in0.0 mm 0.00 in0.0 mm
02:35 AM 35.2°F1.8°C 31.1°F-0.5°C 85% Calm Calm -- 30.47 in1031.8 mb - 0.00 in0.0 mm 0.00 in0.0 mm
02:30 AM 35.3°F1.8°C 31.2°F-0.4°C 85% Calm Calm -- 30.47 in1031.8 mb - 0.00 in0.0 mm 0.00 in0.0 mm
02:25 AM 35.4°F1.9°C 31.3°F-0.4°C 85% Calm Calm -- 30.47 in1031.8 mb - 0.00 in0.0 mm 0.00 in0.0 mm
02:20 AM 35.5°F1.9°C 31.5°F-0.3°C 85% Calm Calm -- 30.48 in1032.2 mb - 0.00 in0.0 mm 0.00 in0.0 mm
02:15 AM 35.7°F2.1°C 31.3°F-0.4°C 84% Calm Calm -- 30.47 in1031.8 mb - 0.00 in0.0 mm 0.00 in0.0 mm
02:10 AM 35.8°F2.1°C 31.4°F-0.3°C 84% Calm Calm -- 30.47 in1031.8 mb - 0.00 in0.0 mm 0.00 in0.0 mm
02:00 AM 36.0°F2.2°C 31.7°F-0.2°C 84% Calm Calm -- 30.47 in1031.8 mb - 0.00 in0.0 mm 0.00 in0.0 mm
01:55 AM 36.1°F2.3°C 31.7°F-0.2°C 84% Calm Calm -- 30.48 in1032.2 mb - 0.00 in0.0 mm 0.00 in0.0 mm
01:50 AM 36.2°F2.3°C 31.8°F-0.1°C 84% Calm Calm -- 30.48 in1032.2 mb - 0.00 in0.0 mm 0.00 in0.0 mm
01:45 AM 36.3°F2.4°C 32.0°F0.0°C 84% Calm Calm -- 30.48 in1032.2 mb - 0.00 in0.0 mm 0.00 in0.0 mm
01:40 AM 36.5°F2.5°C 32.1°F0.1°C 84% Calm Calm -- 30.48 in1032.2 mb - 0.00 in0.0 mm 0.00 in0.0 mm
01:35 AM 36.5°F2.5°C 31.8°F-0.1°C 83% Calm Calm -- 30.48 in1032.2 mb - 0.00 in0.0 mm 0.00 in0.0 mm
01:30 AM 36.7°F2.6°C 32.0°F0.0°C 83% Calm Calm -- 30.48 in1032.2 mb - 0.00 in0.0 mm 0.00 in0.0 mm
01:25 AM 36.8°F2.7°C 32.4°F0.2°C 84% Calm Calm -- 30.48 in1032.2 mb - 0.00 in0.0 mm 0.00 in0.0 mm
01:20 AM 36.9°F2.7°C 32.5°F0.3°C 84% Calm Calm -- 30.48 in1032.2 mb - 0.00 in0.0 mm 0.00 in0.0 mm
01:15 AM 36.9°F2.7°C 32.5°F0.3°C 84% Calm Calm -- 30.47 in1031.8 mb - 0.00 in0.0 mm 0.00 in0.0 mm
01:10 AM 36.9°F2.7°C 32.5°F0.3°C 84% Calm Calm -- 30.47 in1031.8 mb - 0.00 in0.0 mm 0.00 in0.0 mm
01:00 AM 36.9°F2.7°C 32.2°F0.1°C 83% Calm Calm -- 30.47 in1031.8 mb - 0.00 in0.0 mm 0.00 in0.0 mm
12:55 AM 37.1°F2.8°C 32.4°F0.2°C 83% Calm Calm -- 30.47 in1031.8 mb - 0.00 in0.0 mm 0.00 in0.0 mm
12:50 AM 37.2°F2.9°C 32.5°F0.3°C 83% Calm Calm -- 30.47 in1031.8 mb - 0.00 in0.0 mm 0.00 in0.0 mm
12:45 AM 37.4°F3.0°C 32.7°F0.4°C 83% Calm Calm -- 30.47 in1031.8 mb - 0.00 in0.0 mm 0.00 in0.0 mm
12:40 AM 37.5°F3.1°C 32.8°F0.4°C 83% Calm Calm -- 30.47 in1031.8 mb - 0.00 in0.0 mm 0.00 in0.0 mm
12:35 AM 37.5°F3.1°C 32.8°F0.4°C 83% Calm Calm -- 30.47 in1031.8 mb - 0.00 in0.0 mm 0.00 in0.0 mm
12:30 AM 37.5°F3.1°C 32.8°F0.4°C 83% Calm Calm -- 30.47 in1031.8 mb - 0.00 in0.0 mm 0.00 in0.0 mm
12:25 AM 37.5°F3.1°C 32.5°F0.3°C 82% Calm Calm -- 30.47 in1031.8 mb - 0.00 in0.0 mm 0.00 in0.0 mm
12:20 AM 37.9°F3.3°C 32.6°F0.3°C 81% Calm Calm -- 30.47 in1031.8 mb - 0.00 in0.0 mm 0.00 in0.0 mm
12:15 AM 38.2°F3.4°C 32.9°F0.5°C 81% Calm Calm -- 30.47 in1031.8 mb - 0.00 in0.0 mm 0.00 in0.0 mm
12:10 AM 38.3°F3.5°C 33.0°F0.6°C 81% Calm Calm -- 30.47 in1031.8 mb - 0.00 in0.0 mm 0.00 in0.0 mm
12:00 AM 38.6°F3.7°C 32.9°F0.5°C 80% Calm Calm -- 30.47 in1031.8 mb - 0.00 in0.0 mm 0.00 in0.0 mm